sensor_id;sensor_type;location;lat;lon;timestamp;temperature;humidity
22364;DHT22;11349;53.412;-1.328;2023-02-01T00:01:59;7.90;99.90
22364;DHT22;11349;53.412;-1.328;2023-02-01T00:04:26;7.80;99.90
22364;DHT22;11349;53.412;-1.328;2023-02-01T00:06:52;7.90;99.90
22364;DHT22;11349;53.412;-1.328;2023-02-01T00:09:18;7.70;99.90
22364;DHT22;11349;53.412;-1.328;2023-02-01T00:11:43;8.10;99.90
22364;DHT22;11349;53.412;-1.328;2023-02-01T00:14:09;8.00;99.90
22364;DHT22;11349;53.412;-1.328;2023-02-01T00:16:35;7.90;99.90
22364;DHT22;11349;53.412;-1.328;2023-02-01T00:19:04;7.90;99.90
22364;DHT22;11349;53.412;-1.328;2023-02-01T00:21:30;7.80;99.90
22364;DHT22;11349;53.412;-1.328;2023-02-01T00:23:57;7.70;99.90
22364;DHT22;11349;53.412;-1.328;2023-02-01T00:26:31;7.70;99.90
22364;DHT22;11349;53.412;-1.328;2023-02-01T00:28:57;7.70;99.90
22364;DHT22;11349;53.412;-1.328;2023-02-01T00:31:23;7.70;99.90
22364;DHT22;11349;53.412;-1.328;2023-02-01T00:33:49;7.60;99.90
22364;DHT22;11349;53.412;-1.328;2023-02-01T00:36:14;7.50;99.90
22364;DHT22;11349;53.412;-1.328;2023-02-01T00:38:40;7.50;99.90
22364;DHT22;11349;53.412;-1.328;2023-02-01T00:41:15;7.60;99.90
22364;DHT22;11349;53.412;-1.328;2023-02-01T00:43:42;7.60;99.90
22364;DHT22;11349;53.412;-1.328;2023-02-01T00:46:08;7.40;99.90
22364;DHT22;11349;53.412;-1.328;2023-02-01T00:48:34;7.40;99.90
22364;DHT22;11349;53.412;-1.328;2023-02-01T00:51:01;7.40;99.90
22364;DHT22;11349;53.412;-1.328;2023-02-01T00:53:27;7.40;99.90
22364;DHT22;11349;53.412;-1.328;2023-02-01T00:55:53;7.50;99.90
22364;DHT22;11349;53.412;-1.328;2023-02-01T00:58:19;7.50;99.90
22364;DHT22;11349;53.412;-1.328;2023-02-01T01:00:45;7.80;99.90
22364;DHT22;11349;53.412;-1.328;2023-02-01T01:03:12;7.60;99.90
22364;DHT22;11349;53.412;-1.328;2023-02-01T01:05:47;7.60;99.90
22364;DHT22;11349;53.412;-1.328;2023-02-01T01:08:15;7.50;99.90
22364;DHT22;11349;53.412;-1.328;2023-02-01T01:10:41;7.60;99.90
22364;DHT22;11349;53.412;-1.328;2023-02-01T01:13:08;7.50;99.90
22364;DHT22;11349;53.412;-1.328;2023-02-01T01:15:38;7.50;99.90
22364;DHT22;11349;53.412;-1.328;2023-02-01T01:18:05;7.60;99.90
22364;DHT22;11349;53.412;-1.328;2023-02-01T01:20:31;7.60;99.90
22364;DHT22;11349;53.412;-1.328;2023-02-01T01:22:59;7.70;99.90
22364;DHT22;11349;53.412;-1.328;2023-02-01T01:25:24;7.60;99.90
22364;DHT22;11349;53.412;-1.328;2023-02-01T01:27:50;7.70;99.90
22364;DHT22;11349;53.412;-1.328;2023-02-01T01:30:16;7.80;99.90
22364;DHT22;11349;53.412;-1.328;2023-02-01T01:32:43;7.70;99.90
22364;DHT22;11349;53.412;-1.328;2023-02-01T01:35:09;7.50;99.90
22364;DHT22;11349;53.412;-1.328;2023-02-01T01:37:35;7.80;99.90
22364;DHT22;11349;53.412;-1.328;2023-02-01T01:40:05;7.70;99.90
22364;DHT22;11349;53.412;-1.328;2023-02-01T01:42:41;7.50;99.90
22364;DHT22;11349;53.412;-1.328;2023-02-01T01:45:20;7.60;99.90
22364;DHT22;11349;53.412;-1.328;2023-02-01T01:47:50;7.60;99.90
22364;DHT22;11349;53.412;-1.328;2023-02-01T01:50:23;7.60;99.90
22364;DHT22;11349;53.412;-1.328;2023-02-01T01:52:51;7.60;99.90
22364;DHT22;11349;53.412;-1.328;2023-02-01T01:55:19;7.40;99.90
22364;DHT22;11349;53.412;-1.328;2023-02-01T01:57:53;7.40;99.90
22364;DHT22;11349;53.412;-1.328;2023-02-01T02:00:21;7.40;99.90
22364;DHT22;11349;53.412;-1.328;2023-02-01T02:02:53;7.30;99.90
22364;DHT22;11349;53.412;-1.328;2023-02-01T02:05:20;7.40;99.90
22364;DHT22;11349;53.412;-1.328;2023-02-01T02:07:49;7.40;99.90
22364;DHT22;11349;53.412;-1.328;2023-02-01T02:10:17;7.50;99.90
22364;DHT22;11349;53.412;-1.328;2023-02-01T02:12:45;8.20;99.90
22364;DHT22;11349;53.412;-1.328;2023-02-01T02:15:13;7.90;99.90
22364;DHT22;11349;53.412;-1.328;2023-02-01T02:25:48;7.90;99.90
22364;DHT22;11349;53.412;-1.328;2023-02-01T02:34:15;7.70;99.90
22364;DHT22;11349;53.412;-1.328;2023-02-01T02:44:54;7.80;99.90
22364;DHT22;11349;53.412;-1.328;2023-02-01T02:48:30;7.80;99.90
22364;DHT22;11349;53.412;-1.328;2023-02-01T02:50:49;7.90;99.90
22364;DHT22;11349;53.412;-1.328;2023-02-01T02:53:43;7.70;99.90
22364;DHT22;11349;53.412;-1.328;2023-02-01T02:56:29;7.90;99.90
22364;DHT22;11349;53.412;-1.328;2023-02-01T02:59:17;7.90;99.90
22364;DHT22;11349;53.412;-1.328;2023-02-01T03:02:04;7.80;99.90
22364;DHT22;11349;53.412;-1.328;2023-02-01T03:04:53;7.60;99.90
22364;DHT22;11349;53.412;-1.328;2023-02-01T03:07:54;7.70;99.90
22364;DHT22;11349;53.412;-1.328;2023-02-01T03:12:55;7.50;99.90
22364;DHT22;11349;53.412;-1.328;2023-02-01T03:21:00;7.40;99.90
22364;DHT22;11349;53.412;-1.328;2023-02-01T03:23:30;7.20;99.90
22364;DHT22;11349;53.412;-1.328;2023-02-01T03:25:58;7.20;99.90
22364;DHT22;11349;53.412;-1.328;2023-02-01T03:28:25;7.20;99.90
22364;DHT22;11349;53.412;-1.328;2023-02-01T03:30:53;7.20;99.90
22364;DHT22;11349;53.412;-1.328;2023-02-01T03:33:22;7.50;99.90
22364;DHT22;11349;53.412;-1.328;2023-02-01T03:39:02;7.80;99.90
22364;DHT22;11349;53.412;-1.328;2023-02-01T03:41:56;7.60;99.90
22364;DHT22;11349;53.412;-1.328;2023-02-01T03:47:15;7.50;99.90
22364;DHT22;11349;53.412;-1.328;2023-02-01T03:50:05;7.80;99.90
22364;DHT22;11349;53.412;-1.328;2023-02-01T03:52:53;7.60;99.90
22364;DHT22;11349;53.412;-1.328;2023-02-01T03:55:22;7.60;99.90
22364;DHT22;11349;53.412;-1.328;2023-02-01T03:58:16;7.40;99.90
22364;DHT22;11349;53.412;-1.328;2023-02-01T04:00:57;7.40;99.90
22364;DHT22;11349;53.412;-1.328;2023-02-01T04:03:23;7.30;99.90
22364;DHT22;11349;53.412;-1.328;2023-02-01T04:05:50;7.30;99.90
22364;DHT22;11349;53.412;-1.328;2023-02-01T04:08:19;7.30;99.90
22364;DHT22;11349;53.412;-1.328;2023-02-01T04:10:45;7.20;99.90
22364;DHT22;11349;53.412;-1.328;2023-02-01T04:13:11;7.20;99.90
22364;DHT22;11349;53.412;-1.328;2023-02-01T04:15:37;7.20;99.90
22364;DHT22;11349;53.412;-1.328;2023-02-01T04:18:03;7.20;99.90
22364;DHT22;11349;53.412;-1.328;2023-02-01T04:20:29;7.30;99.90
22364;DHT22;11349;53.412;-1.328;2023-02-01T04:22:55;7.50;99.90
22364;DHT22;11349;53.412;-1.328;2023-02-01T04:25:20;7.40;99.90
22364;DHT22;11349;53.412;-1.328;2023-02-01T04:27:46;7.20;99.90
22364;DHT22;11349;53.412;-1.328;2023-02-01T04:30:13;7.20;99.90
22364;DHT22;11349;53.412;-1.328;2023-02-01T04:32:39;7.30;99.90
22364;DHT22;11349;53.412;-1.328;2023-02-01T04:35:05;7.40;99.90
22364;DHT22;11349;53.412;-1.328;2023-02-01T04:37:31;7.40;99.90
22364;DHT22;11349;53.412;-1.328;2023-02-01T04:39:56;7.20;99.90
22364;DHT22;11349;53.412;-1.328;2023-02-01T04:42:22;7.20;99.90
22364;DHT22;11349;53.412;-1.328;2023-02-01T04:44:48;7.60;99.90
22364;DHT22;11349;53.412;-1.328;2023-02-01T04:47:14;7.40;99.90
22364;DHT22;11349;53.412;-1.328;2023-02-01T04:49:41;7.30;99.90
22364;DHT22;11349;53.412;-1.328;2023-02-01T04:52:07;7.30;99.90
22364;DHT22;11349;53.412;-1.328;2023-02-01T04:54:33;7.30;99.90
22364;DHT22;11349;53.412;-1.328;2023-02-01T04:56:59;7.30;99.90
22364;DHT22;11349;53.412;-1.328;2023-02-01T04:59:25;7.20;99.90
22364;DHT22;11349;53.412;-1.328;2023-02-01T05:01:51;7.20;99.90
22364;DHT22;11349;53.412;-1.328;2023-02-01T05:04:17;7.40;99.90
22364;DHT22;11349;53.412;-1.328;2023-02-01T05:06:46;7.30;99.90
22364;DHT22;11349;53.412;-1.328;2023-02-01T05:09:11;7.20;99.90
22364;DHT22;11349;53.412;-1.328;2023-02-01T05:11:37;7.30;99.90
22364;DHT22;11349;53.412;-1.328;2023-02-01T05:14:22;7.20;99.90
22364;DHT22;11349;53.412;-1.328;2023-02-01T05:16:47;7.20;99.90
22364;DHT22;11349;53.412;-1.328;2023-02-01T05:19:14;7.10;99.90
22364;DHT22;11349;53.412;-1.328;2023-02-01T05:21:39;7.20;99.90
22364;DHT22;11349;53.412;-1.328;2023-02-01T05:24:06;7.30;99.90
22364;DHT22;11349;53.412;-1.328;2023-02-01T05:26:36;7.30;99.90
22364;DHT22;11349;53.412;-1.328;2023-02-01T05:29:03;7.30;99.90
22364;DHT22;11349;53.412;-1.328;2023-02-01T05:31:29;7.30;99.90
22364;DHT22;11349;53.412;-1.328;2023-02-01T05:33:55;7.20;99.90
22364;DHT22;11349;53.412;-1.328;2023-02-01T05:36:21;7.20;99.90
22364;DHT22;11349;53.412;-1.328;2023-02-01T05:38:46;7.20;99.90
22364;DHT22;11349;53.412;-1.328;2023-02-01T05:41:12;7.10;99.90
22364;DHT22;11349;53.412;-1.328;2023-02-01T05:43:38;7.20;99.90
22364;DHT22;11349;53.412;-1.328;2023-02-01T05:46:04;7.20;99.90
22364;DHT22;11349;53.412;-1.328;2023-02-01T05:48:29;7.30;99.90
22364;DHT22;11349;53.412;-1.328;2023-02-01T05:50:55;7.30;99.90
22364;DHT22;11349;53.412;-1.328;2023-02-01T05:53:21;7.30;99.90
22364;DHT22;11349;53.412;-1.328;2023-02-01T05:55:47;7.30;99.90
22364;DHT22;11349;53.412;-1.328;2023-02-01T05:58:13;7.40;99.90
22364;DHT22;11349;53.412;-1.328;2023-02-01T06:00:39;7.20;99.90
22364;DHT22;11349;53.412;-1.328;2023-02-01T06:03:05;7.30;99.90
22364;DHT22;11349;53.412;-1.328;2023-02-01T06:05:30;7.30;99.90
22364;DHT22;11349;53.412;-1.328;2023-02-01T06:07:56;7.40;99.90
22364;DHT22;11349;53.412;-1.328;2023-02-01T06:10:22;7.30;99.90
22364;DHT22;11349;53.412;-1.328;2023-02-01T06:12:48;7.30;99.90
22364;DHT22;11349;53.412;-1.328;2023-02-01T06:15:14;7.30;99.90
22364;DHT22;11349;53.412;-1.328;2023-02-01T06:17:44;7.30;99.90
22364;DHT22;11349;53.412;-1.328;2023-02-01T06:20:12;7.40;99.90
22364;DHT22;11349;53.412;-1.328;2023-02-01T06:22:39;7.30;99.90
22364;DHT22;11349;53.412;-1.328;2023-02-01T06:25:06;7.50;99.90
22364;DHT22;11349;53.412;-1.328;2023-02-01T06:27:33;7.50;99.90
22364;DHT22;11349;53.412;-1.328;2023-02-01T06:29:58;7.60;99.90
22364;DHT22;11349;53.412;-1.328;2023-02-01T06:32:24;7.60;99.90
22364;DHT22;11349;53.412;-1.328;2023-02-01T06:34:50;7.50;99.90
22364;DHT22;11349;53.412;-1.328;2023-02-01T06:37:18;7.50;99.90
22364;DHT22;11349;53.412;-1.328;2023-02-01T06:39:44;7.50;99.90
22364;DHT22;11349;53.412;-1.328;2023-02-01T06:42:10;7.50;99.90
22364;DHT22;11349;53.412;-1.328;2023-02-01T06:44:36;7.50;99.90
22364;DHT22;11349;53.412;-1.328;2023-02-01T06:47:03;7.60;99.90
22364;DHT22;11349;53.412;-1.328;2023-02-01T06:49:29;7.50;99.90
22364;DHT22;11349;53.412;-1.328;2023-02-01T06:51:55;7.50;99.90
22364;DHT22;11349;53.412;-1.328;2023-02-01T06:54:21;7.60;99.90
22364;DHT22;11349;53.412;-1.328;2023-02-01T06:56:46;7.80;99.90
22364;DHT22;11349;53.412;-1.328;2023-02-01T06:59:12;7.60;99.90
22364;DHT22;11349;53.412;-1.328;2023-02-01T07:01:38;7.60;99.90
22364;DHT22;11349;53.412;-1.328;2023-02-01T07:04:04;7.60;99.90
22364;DHT22;11349;53.412;-1.328;2023-02-01T07:06:29;7.80;99.90
22364;DHT22;11349;53.412;-1.328;2023-02-01T07:08:57;7.70;99.90
22364;DHT22;11349;53.412;-1.328;2023-02-01T07:11:23;7.60;99.90
22364;DHT22;11349;53.412;-1.328;2023-02-01T07:13:49;7.60;99.90
22364;DHT22;11349;53.412;-1.328;2023-02-01T07:16:17;7.80;99.90
22364;DHT22;11349;53.412;-1.328;2023-02-01T07:18:44;7.90;99.90
22364;DHT22;11349;53.412;-1.328;2023-02-01T07:21:10;7.80;99.90
22364;DHT22;11349;53.412;-1.328;2023-02-01T07:23:36;7.80;99.90
22364;DHT22;11349;53.412;-1.328;2023-02-01T07:26:04;7.80;99.90
22364;DHT22;11349;53.412;-1.328;2023-02-01T07:28:33;7.70;99.90
22364;DHT22;11349;53.412;-1.328;2023-02-01T07:31:06;7.70;99.90
22364;DHT22;11349;53.412;-1.328;2023-02-01T07:33:33;7.70;99.90
22364;DHT22;11349;53.412;-1.328;2023-02-01T07:36:01;7.60;99.90
22364;DHT22;11349;53.412;-1.328;2023-02-01T07:38:28;7.60;99.90
22364;DHT22;11349;53.412;-1.328;2023-02-01T07:41:03;7.60;99.90
22364;DHT22;11349;53.412;-1.328;2023-02-01T07:43:29;7.60;99.90
22364;DHT22;11349;53.412;-1.328;2023-02-01T07:45:56;7.60;99.90
22364;DHT22;11349;53.412;-1.328;2023-02-01T07:48:23;7.90;99.90
22364;DHT22;11349;53.412;-1.328;2023-02-01T07:53:29;7.70;99.90
22364;DHT22;11349;53.412;-1.328;2023-02-01T07:55:55;7.90;99.90
22364;DHT22;11349;53.412;-1.328;2023-02-01T07:58:22;7.60;99.90
22364;DHT22;11349;53.412;-1.328;2023-02-01T08:00:48;7.80;99.90
22364;DHT22;11349;53.412;-1.328;2023-02-01T08:03:33;7.70;99.90
22364;DHT22;11349;53.412;-1.328;2023-02-01T08:05:59;7.70;99.90
22364;DHT22;11349;53.412;-1.328;2023-02-01T08:08:24;7.80;99.90
22364;DHT22;11349;53.412;-1.328;2023-02-01T08:10:50;7.70;99.90
22364;DHT22;11349;53.412;-1.328;2023-02-01T08:13:16;7.70;99.90
22364;DHT22;11349;53.412;-1.328;2023-02-01T08:15:42;7.80;99.90
22364;DHT22;11349;53.412;-1.328;2023-02-01T08:18:07;7.80;99.90
22364;DHT22;11349;53.412;-1.328;2023-02-01T08:20:35;7.90;99.90
22364;DHT22;11349;53.412;-1.328;2023-02-01T08:23:01;8.00;99.90
22364;DHT22;11349;53.412;-1.328;2023-02-01T08:25:27;8.00;99.90
22364;DHT22;11349;53.412;-1.328;2023-02-01T08:27:53;7.90;99.90
22364;DHT22;11349;53.412;-1.328;2023-02-01T08:30:20;8.00;99.90
22364;DHT22;11349;53.412;-1.328;2023-02-01T08:32:47;8.00;99.90
22364;DHT22;11349;53.412;-1.328;2023-02-01T08:35:13;8.00;99.90
22364;DHT22;11349;53.412;-1.328;2023-02-01T08:37:39;8.10;99.90
22364;DHT22;11349;53.412;-1.328;2023-02-01T08:40:05;8.10;99.90
22364;DHT22;11349;53.412;-1.328;2023-02-01T08:42:31;8.10;99.90
22364;DHT22;11349;53.412;-1.328;2023-02-01T08:47:45;8.20;99.90
22364;DHT22;11349;53.412;-1.328;2023-02-01T08:50:12;8.30;99.90
22364;DHT22;11349;53.412;-1.328;2023-02-01T08:52:38;8.40;99.90
22364;DHT22;11349;53.412;-1.328;2023-02-01T08:55:05;8.30;99.90
22364;DHT22;11349;53.412;-1.328;2023-02-01T08:57:32;8.40;99.90
22364;DHT22;11349;53.412;-1.328;2023-02-01T08:59:58;8.30;99.90
22364;DHT22;11349;53.412;-1.328;2023-02-01T09:02:24;8.60;99.90
22364;DHT22;11349;53.412;-1.328;2023-02-01T09:04:50;8.60;99.90
22364;DHT22;11349;53.412;-1.328;2023-02-01T09:07:16;8.60;99.90
22364;DHT22;11349;53.412;-1.328;2023-02-01T09:09:44;8.60;99.90
22364;DHT22;11349;53.412;-1.328;2023-02-01T09:12:10;8.60;99.90
22364;DHT22;11349;53.412;-1.328;2023-02-01T09:14:36;8.70;99.90
22364;DHT22;11349;53.412;-1.328;2023-02-01T09:17:02;8.80;99.90
22364;DHT22;11349;53.412;-1.328;2023-02-01T09:19:27;8.80;99.90
22364;DHT22;11349;53.412;-1.328;2023-02-01T09:21:53;9.30;99.90
22364;DHT22;11349;53.412;-1.328;2023-02-01T09:24:19;9.20;99.90
22364;DHT22;11349;53.412;-1.328;2023-02-01T09:26:45;9.00;99.90
22364;DHT22;11349;53.412;-1.328;2023-02-01T09:29:11;9.00;99.90
22364;DHT22;11349;53.412;-1.328;2023-02-01T09:31:37;9.00;99.90
22364;DHT22;11349;53.412;-1.328;2023-02-01T09:34:03;9.30;99.90
22364;DHT22;11349;53.412;-1.328;2023-02-01T09:36:29;9.30;99.90
22364;DHT22;11349;53.412;-1.328;2023-02-01T09:38:55;9.30;99.90
22364;DHT22;11349;53.412;-1.328;2023-02-01T09:46:32;9.30;99.90
22364;DHT22;11349;53.412;-1.328;2023-02-01T09:49:01;9.30;99.90
22364;DHT22;11349;53.412;-1.328;2023-02-01T09:51:43;9.50;99.90
22364;DHT22;11349;53.412;-1.328;2023-02-01T09:54:20;9.30;99.90
22364;DHT22;11349;53.412;-1.328;2023-02-01T09:57:19;9.20;99.90
22364;DHT22;11349;53.412;-1.328;2023-02-01T09:59:54;9.20;99.90
22364;DHT22;11349;53.412;-1.328;2023-02-01T10:02:24;9.30;99.90
22364;DHT22;11349;53.412;-1.328;2023-02-01T10:04:55;9.70;99.90
22364;DHT22;11349;53.412;-1.328;2023-02-01T10:10:29;9.40;99.90
22364;DHT22;11349;53.412;-1.328;2023-02-01T10:13:13;9.50;99.90
22364;DHT22;11349;53.412;-1.328;2023-02-01T10:16:22;9.50;99.90
22364;DHT22;11349;53.412;-1.328;2023-02-01T10:21:53;9.70;99.90
22364;DHT22;11349;53.412;-1.328;2023-02-01T10:24:42;9.80;99.90
22364;DHT22;11349;53.412;-1.328;2023-02-01T10:27:17;10.10;99.90
22364;DHT22;11349;53.412;-1.328;2023-02-01T10:29:58;9.90;99.90
22364;DHT22;11349;53.412;-1.328;2023-02-01T10:32:32;9.90;99.90
22364;DHT22;11349;53.412;-1.328;2023-02-01T10:35:04;9.80;99.90
22364;DHT22;11349;53.412;-1.328;2023-02-01T10:37:34;9.80;99.90
22364;DHT22;11349;53.412;-1.328;2023-02-01T10:40:09;9.80;99.90
22364;DHT22;11349;53.412;-1.328;2023-02-01T10:42:39;9.90;99.90
22364;DHT22;11349;53.412;-1.328;2023-02-01T10:45:15;9.80;99.90
22364;DHT22;11349;53.412;-1.328;2023-02-01T10:47:41;9.80;99.90
22364;DHT22;11349;53.412;-1.328;2023-02-01T10:50:11;10.00;99.90
22364;DHT22;11349;53.412;-1.328;2023-02-01T10:53:33;9.90;99.90
22364;DHT22;11349;53.412;-1.328;2023-02-01T10:58:32;10.10;99.90
22364;DHT22;11349;53.412;-1.328;2023-02-01T11:01:01;10.00;99.90
22364;DHT22;11349;53.412;-1.328;2023-02-01T11:06:01;10.10;99.90
22364;DHT22;11349;53.412;-1.328;2023-02-01T11:08:28;10.00;99.90
22364;DHT22;11349;53.412;-1.328;2023-02-01T11:11:00;9.90;99.90
22364;DHT22;11349;53.412;-1.328;2023-02-01T11:13:31;9.80;99.90
22364;DHT22;11349;53.412;-1.328;2023-02-01T11:16:03;9.80;99.90
22364;DHT22;11349;53.412;-1.328;2023-02-01T11:18:33;9.80;99.90
22364;DHT22;11349;53.412;-1.328;2023-02-01T11:21:00;9.90;99.90
22364;DHT22;11349;53.412;-1.328;2023-02-01T11:23:28;9.90;99.90
22364;DHT22;11349;53.412;-1.328;2023-02-01T11:25:58;10.10;99.90
22364;DHT22;11349;53.412;-1.328;2023-02-01T11:28:27;10.00;99.90
22364;DHT22;11349;53.412;-1.328;2023-02-01T11:30:56;10.10;99.90
22364;DHT22;11349;53.412;-1.328;2023-02-01T11:33:27;10.10;99.90
22364;DHT22;11349;53.412;-1.328;2023-02-01T11:35:56;9.90;99.90
22364;DHT22;11349;53.412;-1.328;2023-02-01T11:38:29;9.80;99.90
22364;DHT22;11349;53.412;-1.328;2023-02-01T11:41:10;10.00;99.90
22364;DHT22;11349;53.412;-1.328;2023-02-01T11:43:36;9.90;99.90
22364;DHT22;11349;53.412;-1.328;2023-02-01T11:46:03;9.80;99.90
22364;DHT22;11349;53.412;-1.328;2023-02-01T11:48:41;9.90;99.90
22364;DHT22;11349;53.412;-1.328;2023-02-01T11:54:20;9.90;99.90
22364;DHT22;11349;53.412;-1.328;2023-02-01T12:21:53;10.10;99.90
22364;DHT22;11349;53.412;-1.328;2023-02-01T12:35:49;10.30;99.90
22364;DHT22;11349;53.412;-1.328;2023-02-01T12:38:44;10.30;99.90
22364;DHT22;11349;53.412;-1.328;2023-02-01T12:44:01;10.60;99.90
22364;DHT22;11349;53.412;-1.328;2023-02-01T12:46:54;10.50;99.90
22364;DHT22;11349;53.412;-1.328;2023-02-01T12:52:17;10.50;99.90
22364;DHT22;11349;53.412;-1.328;2023-02-01T12:57:25;10.50;99.90
22364;DHT22;11349;53.412;-1.328;2023-02-01T13:00:04;10.40;99.90
22364;DHT22;11349;53.412;-1.328;2023-02-01T13:02:50;10.50;99.90
22364;DHT22;11349;53.412;-1.328;2023-02-01T13:05:36;10.60;99.90
22364;DHT22;11349;53.412;-1.328;2023-02-01T13:08:14;10.70;99.90
22364;DHT22;11349;53.412;-1.328;2023-02-01T13:10:53;10.70;99.90
22364;DHT22;11349;53.412;-1.328;2023-02-01T13:13:31;10.60;99.90
22364;DHT22;11349;53.412;-1.328;2023-02-01T13:21:56;10.90;99.90
22364;DHT22;11349;53.412;-1.328;2023-02-01T13:24:45;10.90;99.90
22364;DHT22;11349;53.412;-1.328;2023-02-01T13:27:13;11.20;99.90
22364;DHT22;11349;53.412;-1.328;2023-02-01T13:29:57;11.00;99.90
22364;DHT22;11349;53.412;-1.328;2023-02-01T13:33:17;10.80;99.90
22364;DHT22;11349;53.412;-1.328;2023-02-01T13:36:17;10.80;99.90
22364;DHT22;11349;53.412;-1.328;2023-02-01T13:38:51;10.60;99.90
22364;DHT22;11349;53.412;-1.328;2023-02-01T13:41:24;10.60;99.90
22364;DHT22;11349;53.412;-1.328;2023-02-01T13:43:59;10.50;99.90
22364;DHT22;11349;53.412;-1.328;2023-02-01T13:46:27;10.50;99.90
22364;DHT22;11349;53.412;-1.328;2023-02-01T13:48:59;10.60;99.90
22364;DHT22;11349;53.412;-1.328;2023-02-01T13:51:45;10.50;99.90
22364;DHT22;11349;53.412;-1.328;2023-02-01T13:56:59;10.30;99.90
22364;DHT22;11349;53.412;-1.328;2023-02-01T14:05:04;10.30;99.90
22364;DHT22;11349;53.412;-1.328;2023-02-01T14:07:30;10.60;99.90
22364;DHT22;11349;53.412;-1.328;2023-02-01T14:09:56;10.40;99.90
22364;DHT22;11349;53.412;-1.328;2023-02-01T14:12:47;10.40;99.90
22364;DHT22;11349;53.412;-1.328;2023-02-01T14:15:26;10.50;99.90
22364;DHT22;11349;53.412;-1.328;2023-02-01T14:17:52;10.50;99.90
22364;DHT22;11349;53.412;-1.328;2023-02-01T14:20:43;10.60;99.90
22364;DHT22;11349;53.412;-1.328;2023-02-01T14:23:14;10.50;99.90
22364;DHT22;11349;53.412;-1.328;2023-02-01T14:25:41;10.60;99.90
22364;DHT22;11349;53.412;-1.328;2023-02-01T14:28:12;10.50;99.90
22364;DHT22;11349;53.412;-1.328;2023-02-01T14:30:47;10.60;99.90
22364;DHT22;11349;53.412;-1.328;2023-02-01T14:33:20;10.70;99.90
22364;DHT22;11349;53.412;-1.328;2023-02-01T14:38:25;10.50;99.90
22364;DHT22;11349;53.412;-1.328;2023-02-01T14:40:51;10.40;99.90
22364;DHT22;11349;53.412;-1.328;2023-02-01T14:43:19;10.50;99.90
22364;DHT22;11349;53.412;-1.328;2023-02-01T14:46:03;10.70;99.90
22364;DHT22;11349;53.412;-1.328;2023-02-01T14:50:57;10.40;99.90
22364;DHT22;11349;53.412;-1.328;2023-02-01T14:53:34;10.40;99.90
22364;DHT22;11349;53.412;-1.328;2023-02-01T14:56:07;10.40;99.90
22364;DHT22;11349;53.412;-1.328;2023-02-01T15:01:31;10.20;99.90
22364;DHT22;11349;53.412;-1.328;2023-02-01T15:14:30;10.20;99.90
22364;DHT22;11349;53.412;-1.328;2023-02-01T15:16:56;10.30;99.90
22364;DHT22;11349;53.412;-1.328;2023-02-01T15:19:27;10.60;99.90
22364;DHT22;11349;53.412;-1.328;2023-02-01T15:21:55;10.80;99.90
22364;DHT22;11349;53.412;-1.328;2023-02-01T15:24:29;10.60;99.90
22364;DHT22;11349;53.412;-1.328;2023-02-01T15:27:02;10.40;99.90
22364;DHT22;11349;53.412;-1.328;2023-02-01T15:29:29;10.30;99.90
22364;DHT22;11349;53.412;-1.328;2023-02-01T15:31:58;10.30;99.90
22364;DHT22;11349;53.412;-1.328;2023-02-01T15:34:47;10.20;99.90
22364;DHT22;11349;53.412;-1.328;2023-02-01T15:37:15;10.10;99.90
22364;DHT22;11349;53.412;-1.328;2023-02-01T15:42:36;10.00;99.90
22364;DHT22;11349;53.412;-1.328;2023-02-01T15:45:04;10.10;99.90
22364;DHT22;11349;53.412;-1.328;2023-02-01T15:47:31;10.10;99.90
22364;DHT22;11349;53.412;-1.328;2023-02-01T15:49:59;10.10;99.90
22364;DHT22;11349;53.412;-1.328;2023-02-01T15:52:47;10.10;99.90
22364;DHT22;11349;53.412;-1.328;2023-02-01T15:57:48;10.10;99.90
22364;DHT22;11349;53.412;-1.328;2023-02-01T16:00:31;10.00;99.90
22364;DHT22;11349;53.412;-1.328;2023-02-01T16:03:00;10.70;99.90
22364;DHT22;11349;53.412;-1.328;2023-02-01T16:05:36;10.60;99.90
22364;DHT22;11349;53.412;-1.328;2023-02-01T16:10:44;10.90;99.90
22364;DHT22;11349;53.412;-1.328;2023-02-01T16:13:11;10.50;99.90
22364;DHT22;11349;53.412;-1.328;2023-02-01T16:15:37;10.20;99.90
22364;DHT22;11349;53.412;-1.328;2023-02-01T16:18:04;10.20;99.90
22364;DHT22;11349;53.412;-1.328;2023-02-01T16:20:30;10.20;99.90
22364;DHT22;11349;53.412;-1.328;2023-02-01T16:22:56;10.20;99.90
22364;DHT22;11349;53.412;-1.328;2023-02-01T16:25:22;10.30;99.90
22364;DHT22;11349;53.412;-1.328;2023-02-01T16:27:48;10.30;99.90
22364;DHT22;11349;53.412;-1.328;2023-02-01T16:30:14;10.10;99.90
22364;DHT22;11349;53.412;-1.328;2023-02-01T16:32:40;10.00;99.90
22364;DHT22;11349;53.412;-1.328;2023-02-01T16:35:20;9.90;99.90
22364;DHT22;11349;53.412;-1.328;2023-02-01T16:37:47;10.20;99.90
22364;DHT22;11349;53.412;-1.328;2023-02-01T16:40:14;10.40;99.90
22364;DHT22;11349;53.412;-1.328;2023-02-01T16:42:40;10.20;99.90
22364;DHT22;11349;53.412;-1.328;2023-02-01T16:45:06;10.00;99.90
22364;DHT22;11349;53.412;-1.328;2023-02-01T16:47:32;10.10;99.90
22364;DHT22;11349;53.412;-1.328;2023-02-01T16:49:59;10.10;99.90
22364;DHT22;11349;53.412;-1.328;2023-02-01T16:52:26;10.00;99.90
22364;DHT22;11349;53.412;-1.328;2023-02-01T16:54:52;10.00;99.90
22364;DHT22;11349;53.412;-1.328;2023-02-01T16:57:19;9.90;99.90
22364;DHT22;11349;53.412;-1.328;2023-02-01T16:59:48;9.70;99.90
22364;DHT22;11349;53.412;-1.328;2023-02-01T17:02:18;9.70;99.90
22364;DHT22;11349;53.412;-1.328;2023-02-01T17:04:47;9.70;99.90
22364;DHT22;11349;53.412;-1.328;2023-02-01T17:07:18;9.70;99.90
22364;DHT22;11349;53.412;-1.328;2023-02-01T17:09:46;9.70;99.90
22364;DHT22;11349;53.412;-1.328;2023-02-01T17:12:26;9.90;99.90
22364;DHT22;11349;53.412;-1.328;2023-02-01T17:14:52;9.80;99.90
22364;DHT22;11349;53.412;-1.328;2023-02-01T17:17:19;10.00;99.90
22364;DHT22;11349;53.412;-1.328;2023-02-01T17:19:49;9.90;99.90
22364;DHT22;11349;53.412;-1.328;2023-02-01T17:22:22;9.80;99.90
22364;DHT22;11349;53.412;-1.328;2023-02-01T17:24:48;9.60;99.90
22364;DHT22;11349;53.412;-1.328;2023-02-01T17:27:16;9.50;99.90
22364;DHT22;11349;53.412;-1.328;2023-02-01T17:29:42;9.40;99.90
22364;DHT22;11349;53.412;-1.328;2023-02-01T17:32:28;9.60;99.90
22364;DHT22;11349;53.412;-1.328;2023-02-01T17:34:54;9.80;99.90
22364;DHT22;11349;53.412;-1.328;2023-02-01T17:37:29;9.60;99.90
22364;DHT22;11349;53.412;-1.328;2023-02-01T17:39:55;9.60;99.90
22364;DHT22;11349;53.412;-1.328;2023-02-01T17:42:22;9.50;99.90
22364;DHT22;11349;53.412;-1.328;2023-02-01T17:44:54;9.40;99.90
22364;DHT22;11349;53.412;-1.328;2023-02-01T17:47:20;9.40;99.90
22364;DHT22;11349;53.412;-1.328;2023-02-01T17:49:46;9.40;99.90
22364;DHT22;11349;53.412;-1.328;2023-02-01T17:52:17;9.30;99.90
22364;DHT22;11349;53.412;-1.328;2023-02-01T17:54:43;9.40;99.90
22364;DHT22;11349;53.412;-1.328;2023-02-01T17:57:12;9.50;99.90
22364;DHT22;11349;53.412;-1.328;2023-02-01T17:59:38;9.40;99.90
22364;DHT22;11349;53.412;-1.328;2023-02-01T18:02:08;9.30;99.90
22364;DHT22;11349;53.412;-1.328;2023-02-01T18:04:38;9.30;99.90
22364;DHT22;11349;53.412;-1.328;2023-02-01T18:07:03;9.30;99.90
22364;DHT22;11349;53.412;-1.328;2023-02-01T18:09:29;9.30;99.90
22364;DHT22;11349;53.412;-1.328;2023-02-01T18:11:55;9.30;99.90
22364;DHT22;11349;53.412;-1.328;2023-02-01T18:14:21;9.20;99.90